createdAt,value
2022-12-04T00:01:07.303Z,100185.09
2022-12-04T00:03:58.678Z,100179.22
2022-12-04T00:06:47.346Z,100184.88
2022-12-04T00:09:36.402Z,100180.53
2022-12-04T00:12:26.012Z,100186.69
2022-12-04T00:15:25.334Z,100179.22
2022-12-04T00:18:14.507Z,100182.53
2022-12-04T00:21:06.040Z,100171.41
2022-12-04T00:23:55.468Z,100171.53
2022-12-04T00:26:44.232Z,100173.19
2022-12-04T00:29:33.367Z,100170.63
2022-12-04T00:32:23.458Z,100172.31
2022-12-04T00:35:12.157Z,100165.41
2022-12-04T00:38:00.826Z,100168.75
2022-12-04T00:40:51.304Z,100162.97
2022-12-04T00:43:40.291Z,100155.16
2022-12-04T00:46:29.801Z,100158.75
2022-12-04T00:49:19.902Z,100146.06
2022-12-04T00:52:09.033Z,100156.19
2022-12-04T00:54:57.809Z,100156.19
2022-12-04T00:57:46.840Z,100147.59
2022-12-04T01:00:36.151Z,100147.59
2022-12-04T01:03:24.830Z,100151.06
2022-12-04T01:06:22.895Z,100152.84
2022-12-04T01:09:12.805Z,100142.59
2022-12-04T01:12:01.942Z,100143.38
2022-12-04T01:14:50.632Z,100152.06
2022-12-04T01:17:39.400Z,100156.28
2022-12-04T01:20:28.075Z,100150.28
2022-12-04T01:23:18.857Z,100159.75
2022-12-04T01:26:07.742Z,100158.94
2022-12-04T01:28:56.611Z,100154.84
2022-12-04T01:31:45.301Z,100151.38
2022-12-04T01:34:34.003Z,100159.75
2022-12-04T01:37:23.500Z,100158.63
2022-12-04T01:40:18.007Z,100153.41
2022-12-04T01:43:10.697Z,100147.38
2022-12-04T01:46:01.134Z,100152.59
2022-12-04T01:48:54.384Z,100146.72
2022-12-04T01:51:48.243Z,100155.28
2022-12-04T01:54:43.092Z,100148.03
2022-12-04T01:57:35.824Z,100153.03
2022-12-04T02:00:25.625Z,100149.56
2022-12-04T02:03:15.031Z,100158.72
2022-12-04T02:06:03.784Z,100148.59
2022-12-04T02:08:55.794Z,100146.03
2022-12-04T02:11:53.264Z,100137.59
2022-12-04T02:14:53.739Z,100138.34
2022-12-04T02:17:53.873Z,100132.91
2022-12-04T02:20:49.797Z,100133.56
2022-12-04T02:24:20.247Z,100136.88
2022-12-04T02:27:21.006Z,100135.91
2022-12-04T02:30:14.575Z,100141.00
2022-12-04T02:33:09.037Z,100139.44
2022-12-04T02:36:06.220Z,100135.97
2022-12-04T02:39:05.775Z,100135.09
2022-12-04T02:42:00.597Z,100131.56
2022-12-04T02:44:54.534Z,100115.19
2022-12-04T02:47:47.018Z,100123.75
2022-12-04T02:50:39.056Z,100122.84
2022-12-04T02:53:32.826Z,100132.97
2022-12-04T02:56:27.228Z,100123.53
2022-12-04T02:59:21.368Z,100129.41
2022-12-04T03:02:15.713Z,100126.88
2022-12-04T03:05:12.387Z,100126.94
2022-12-04T03:08:06.125Z,100126.19
2022-12-04T03:10:58.411Z,100130.41
2022-12-04T03:13:51.047Z,100133.84
2022-12-04T03:16:42.935Z,100137.44
2022-12-04T03:19:41.016Z,100139.31
2022-12-04T03:22:32.994Z,100138.53
2022-12-04T03:25:23.668Z,100148.91
2022-12-04T03:28:23.959Z,100144.69
2022-12-04T03:31:12.973Z,100139.56
2022-12-04T03:34:06.054Z,100140.66
2022-12-04T03:36:59.105Z,100146.94
2022-12-04T03:40:00.970Z,100140.78
2022-12-04T03:42:55.951Z,100134.56
2022-12-04T03:45:52.203Z,100126.91
2022-12-04T03:48:46.528Z,100140.66
2022-12-04T03:51:40.979Z,100138.34
2022-12-04T03:54:34.827Z,100134.66
2022-12-04T03:57:31.801Z,100133.75
2022-12-04T04:00:23.020Z,100133.69
2022-12-04T04:03:16.467Z,100131.19
2022-12-04T04:06:11.855Z,100126.00
2022-12-04T04:09:06.122Z,100124.09
2022-12-04T04:12:01.524Z,100123.97
2022-12-04T04:15:12.414Z,100136.88
2022-12-04T04:18:20.357Z,100141.78
2022-12-04T04:21:26.579Z,100140.00
2022-12-04T04:24:30.468Z,100153.69
2022-12-04T04:27:19.176Z,100153.56
2022-12-04T04:30:11.175Z,100150.22
2022-12-04T04:33:07.321Z,100145.22
2022-12-04T04:36:02.639Z,100132.31
2022-12-04T04:39:02.095Z,100139.09
2022-12-04T04:41:57.150Z,100143.31
2022-12-04T04:44:52.515Z,100144.44
2022-12-04T04:47:48.734Z,100135.00
2022-12-04T04:50:38.727Z,100142.91
2022-12-04T04:53:33.181Z,100129.31
2022-12-04T04:56:23.095Z,100131.13
2022-12-04T04:59:12.175Z,100119.97
2022-12-04T05:02:00.958Z,100126.91
2022-12-04T05:04:51.429Z,100119.97
2022-12-04T05:07:40.257Z,100120.97
2022-12-04T05:10:28.925Z,100121.78
2022-12-04T05:13:18.853Z,100119.22
2022-12-04T05:16:14.477Z,100127.78
2022-12-04T05:19:20.880Z,100123.31
2022-12-04T05:22:12.364Z,100113.72
2022-12-04T05:25:02.120Z,100120.16
2022-12-04T05:27:50.825Z,100115.72
2022-12-04T05:30:39.683Z,100121.63
2022-12-04T05:33:28.492Z,100114.59
2022-12-04T05:36:17.556Z,100128.41
2022-12-04T05:39:07.648Z,100117.97
2022-12-04T05:41:56.539Z,100112.84
2022-12-04T05:44:45.214Z,100112.84
2022-12-04T05:47:33.877Z,100106.03
2022-12-04T05:50:22.548Z,100105.94
2022-12-04T05:53:11.269Z,100105.94
2022-12-04T05:56:03.580Z,100106.03
2022-12-04T05:58:52.280Z,100113.19
2022-12-04T06:01:41.748Z,100115.94
2022-12-04T06:04:30.456Z,100121.97
2022-12-04T06:07:19.103Z,100123.63
2022-12-04T06:10:08.745Z,100110.06
2022-12-04T06:12:59.659Z,100113.63
2022-12-04T06:15:48.342Z,100111.28
2022-12-04T06:18:37.370Z,100122.66
2022-12-04T06:21:30.446Z,100109.97
2022-12-04T06:24:22.776Z,100114.88
2022-12-04T06:27:27.413Z,100121.41
2022-12-04T06:30:18.398Z,100109.28
2022-12-04T06:33:07.450Z,100121.06
2022-12-04T06:36:00.938Z,100119.41
2022-12-04T06:38:50.239Z,100119.28
2022-12-04T06:41:38.861Z,100126.19
2022-12-04T06:44:28.177Z,100127.06
2022-12-04T06:47:18.207Z,100118.50
2022-12-04T06:50:09.036Z,100116.84
2022-12-04T06:52:57.619Z,100116.72
2022-12-04T06:55:49.777Z,100121.97
2022-12-04T06:58:38.820Z,100120.09
2022-12-04T07:01:30.381Z,100125.19
2022-12-04T07:04:20.541Z,100122.50
2022-12-04T07:07:10.480Z,100121.75
2022-12-04T07:09:59.147Z,100128.66
2022-12-04T07:12:47.919Z,100123.16
2022-12-04T07:15:37.718Z,100129.06
2022-12-04T07:18:26.392Z,100129.28
2022-12-04T07:21:19.518Z,100124.75
2022-12-04T07:24:09.261Z,100122.06
2022-12-04T07:26:57.894Z,100136.50
2022-12-04T07:29:46.538Z,100132.16
2022-12-04T07:32:35.339Z,100132.28
2022-12-04T07:35:24.075Z,100124.75
2022-12-04T07:38:14.369Z,100127.28
2022-12-04T07:41:05.374Z,100135.97
2022-12-04T07:43:55.208Z,100136.22
2022-12-04T07:46:44.690Z,100141.31
2022-12-04T07:49:33.494Z,100132.06
2022-12-04T07:52:22.138Z,100144.84
2022-12-04T07:55:12.905Z,100136.53
2022-12-04T07:58:01.854Z,100136.66
2022-12-04T08:00:50.649Z,100137.66
2022-12-04T08:03:45.207Z,100147.25
2022-12-04T08:06:36.624Z,100145.31
2022-12-04T08:09:25.273Z,100158.25
2022-12-04T08:12:15.739Z,100159.91
2022-12-04T08:15:06.836Z,100162.47
2022-12-04T08:17:55.956Z,100159.13
2022-12-04T08:20:44.677Z,100153.13
2022-12-04T08:23:33.598Z,100149.69
2022-12-04T08:26:26.077Z,100148.00
2022-12-04T08:29:16.206Z,100142.91
2022-12-04T08:32:05.374Z,100149.56
2022-12-04T08:34:55.921Z,100154.66
2022-12-04T08:37:44.911Z,100146.22
2022-12-04T08:40:33.626Z,100149.81
2022-12-04T08:43:22.314Z,100151.81
2022-12-04T08:46:15.800Z,100157.94
2022-12-04T08:49:05.101Z,100166.50
2022-12-04T08:51:53.754Z,100154.47
2022-12-04T08:54:42.410Z,100155.13
2022-12-04T08:57:31.071Z,100164.47
2022-12-04T09:00:20.671Z,100167.84
2022-12-04T09:03:13.007Z,100165.16
2022-12-04T09:06:02.239Z,100162.47
2022-12-04T09:08:55.258Z,100164.25
2022-12-04T09:11:47.042Z,100163.50
2022-12-04T09:14:35.699Z,100167.03
2022-12-04T09:17:24.276Z,100155.94
2022-12-04T09:20:15.043Z,100161.16
2022-12-04T09:23:05.206Z,100158.38
2022-12-04T09:25:55.274Z,100170.28
2022-12-04T09:28:43.910Z,100153.13
2022-12-04T09:31:33.830Z,100149.03
2022-12-04T09:34:22.471Z,100160.25
2022-12-04T09:37:12.927Z,100159.59
2022-12-04T09:40:01.569Z,100156.16
2022-12-04T09:42:57.532Z,100148.69
2022-12-04T09:45:52.558Z,100161.72
2022-12-04T09:48:44.292Z,100163.66
2022-12-04T09:51:35.943Z,100156.94
2022-12-04T09:54:33.074Z,100152.97
2022-12-04T09:57:30.553Z,100157.41
2022-12-04T10:00:21.480Z,100160.97
2022-12-04T10:03:17.514Z,100158.41
2022-12-04T10:06:14.821Z,100172.13
2022-12-04T10:09:11.184Z,100169.19
2022-12-04T10:12:16.146Z,100153.63
2022-12-04T10:15:20.493Z,100155.28
2022-12-04T10:18:36.263Z,100162.06
2022-12-04T10:21:43.930Z,100163.84
2022-12-04T10:24:43.363Z,100167.44
2022-12-04T10:27:41.414Z,100163.22
2022-12-04T10:30:32.850Z,100156.94
2022-12-04T10:33:31.617Z,100154.38
2022-12-04T10:36:23.960Z,100154.38
2022-12-04T10:39:21.923Z,100144.41
2022-12-04T10:42:24.650Z,100138.47
2022-12-04T10:45:15.574Z,100135.91
2022-12-04T10:48:04.324Z,100141.16
2022-12-04T10:50:53.031Z,100136.03
2022-12-04T10:53:42.323Z,100136.94
2022-12-04T10:56:30.959Z,100134.50
2022-12-04T10:59:19.696Z,100126.94
2022-12-04T11:02:22.713Z,100120.22
2022-12-04T11:05:28.169Z,100117.78
2022-12-04T11:08:25.299Z,100094.63
2022-12-04T11:11:16.286Z,100098.84
2022-12-04T11:14:17.956Z,100091.88
2022-12-04T11:17:08.064Z,100081.50
2022-12-04T11:20:09.223Z,100078.28
2022-12-04T11:22:59.748Z,100085.16
2022-12-04T11:25:50.792Z,100088.88
2022-12-04T11:28:51.895Z,100076.16
2022-12-04T11:31:41.431Z,100096.88
2022-12-04T11:34:37.079Z,100077.50
2022-12-04T11:37:31.689Z,100077.50
2022-12-04T11:40:21.894Z,100083.41
2022-12-04T11:43:15.829Z,100080.16
2022-12-04T11:46:07.510Z,100081.97
2022-12-04T11:48:56.246Z,100076.59
2022-12-04T11:51:54.528Z,100075.06
2022-12-04T11:54:57.694Z,100065.69
2022-12-04T11:57:57.250Z,100056.34
2022-12-04T12:00:55.205Z,100058.13
2022-12-04T12:03:57.968Z,100055.66
2022-12-04T12:07:03.482Z,100047.91
2022-12-04T12:10:02.865Z,100058.13
2022-12-04T12:13:03.359Z,100055.56
2022-12-04T12:16:03.868Z,100054.81
2022-12-04T12:19:09.435Z,100057.44
2022-12-04T12:22:09.146Z,100048.09
2022-12-04T12:25:08.124Z,100048.88
2022-12-04T12:28:14.909Z,100047.22
2022-12-04T12:31:24.039Z,100050.53
2022-12-04T12:34:19.246Z,100051.44
2022-12-04T12:37:19.939Z,100043.56
2022-12-04T12:40:17.262Z,100046.88
2022-12-04T12:43:13.496Z,100046.88
2022-12-04T12:46:07.970Z,100044.31
2022-12-04T12:49:04.727Z,100035.09
2022-12-04T12:51:58.497Z,100024.72
2022-12-04T12:54:54.680Z,100011.03
2022-12-04T12:57:50.788Z,100012.06
2022-12-04T13:00:47.112Z,100013.84
2022-12-04T13:03:46.594Z,100006.16
2022-12-04T13:06:41.030Z,100006.25
2022-12-04T13:09:34.009Z,99996.88
2022-12-04T13:12:23.946Z,99993.56
2022-12-04T13:15:17.589Z,100002.44
2022-12-04T13:18:09.575Z,99993.28
2022-12-04T13:21:02.028Z,99998.41
2022-12-04T13:24:05.686Z,100002.69
2022-12-04T13:27:01.370Z,100011.13
2022-12-04T13:30:05.658Z,100007.56
2022-12-04T13:33:42.300Z,100018.72
2022-12-04T13:36:52.485Z,100018.72
2022-12-04T13:40:29.642Z,100016.91
2022-12-04T13:43:35.503Z,100023.72
2022-12-04T13:46:34.121Z,100024.59
2022-12-04T13:49:29.785Z,100028.28
2022-12-04T13:52:26.027Z,100029.38
2022-12-04T13:55:33.566Z,100028.72
2022-12-04T13:58:30.616Z,100019.25
2022-12-04T14:01:30.847Z,100023.59
2022-12-04T14:04:29.869Z,100023.69
2022-12-04T14:07:29.387Z,100025.34
2022-12-04T14:10:29.962Z,100016.91
2022-12-04T14:13:23.055Z,100028.94
2022-12-04T14:16:23.302Z,100016.25
2022-12-04T14:19:32.426Z,100012.78
2022-12-04T14:22:31.168Z,100011.13
2022-12-04T14:25:36.598Z,100020.69
2022-12-04T14:28:42.693Z,100014.78
2022-12-04T14:31:36.628Z,100001.84
2022-12-04T14:34:31.824Z,100016.44
2022-12-04T14:37:28.133Z,100014.66
2022-12-04T14:40:24.267Z,100013.75
2022-12-04T14:43:20.948Z,100003.53
2022-12-04T14:46:21.953Z,100013.75
2022-12-04T14:49:35.726Z,100000.88
2022-12-04T14:52:32.160Z,100001.66
2022-12-04T14:55:33.159Z,100003.31
2022-12-04T14:58:34.691Z,99998.19
2022-12-04T15:01:29.312Z,99999.22
2022-12-04T15:04:28.981Z,100003.53
2022-12-04T15:07:25.583Z,100002.84
2022-12-04T15:10:40.759Z,99997.06
2022-12-04T15:13:32.069Z,99987.50
2022-12-04T15:16:22.876Z,99990.06
2022-12-04T15:19:21.240Z,99998.63
2022-12-04T15:22:21.068Z,100003.94
2022-12-04T15:25:19.362Z,100002.28
2022-12-04T15:28:15.756Z,100002.41
2022-12-04T15:31:07.618Z,100010.22
2022-12-04T15:34:00.244Z,100013.75
2022-12-04T15:36:52.808Z,100009.50
2022-12-04T15:39:42.078Z,100010.22
2022-12-04T15:42:32.221Z,100004.97
2022-12-04T15:45:31.915Z,100015.09
2022-12-04T15:48:29.327Z,100014.78
2022-12-04T15:51:21.983Z,100005.31
2022-12-04T15:54:17.230Z,100012.22
2022-12-04T15:57:08.759Z,100006.31
2022-12-04T16:00:01.266Z,100016.69
2022-12-04T16:02:50.711Z,100015.78
2022-12-04T16:05:40.163Z,100019.31
2022-12-04T16:08:33.119Z,100016.88
2022-12-04T16:11:34.583Z,100029.56
2022-12-04T16:14:23.232Z,100018.22
2022-12-04T16:17:14.985Z,100015.56
2022-12-04T16:20:08.205Z,100018.69
2022-12-04T16:22:56.944Z,100013.38
2022-12-04T16:25:47.310Z,100013.38
2022-12-04T16:28:38.570Z,100022.81
2022-12-04T16:31:28.016Z,100017.78
2022-12-04T16:34:18.430Z,100011.66
2022-12-04T16:37:13.717Z,100022.91
2022-12-04T16:40:06.416Z,100023.03
2022-12-04T16:42:55.162Z,100034.19
2022-12-04T16:45:47.662Z,100030.91
2022-12-04T16:48:37.671Z,100040.41
2022-12-04T16:51:28.767Z,100042.94
2022-12-04T16:54:17.760Z,100042.84
2022-12-04T16:57:06.447Z,100047.06
2022-12-04T16:59:55.461Z,100045.41
2022-12-04T17:02:45.500Z,100046.28
2022-12-04T17:05:35.868Z,100055.75
2022-12-04T17:08:26.002Z,100055.88
2022-12-04T17:11:17.054Z,100057.66
2022-12-04T17:14:07.960Z,100062.88
2022-12-04T17:16:58.711Z,100082.59
2022-12-04T17:19:48.331Z,100066.25
2022-12-04T17:22:37.077Z,100069.78
2022-12-04T17:25:27.160Z,100063.88
2022-12-04T17:28:15.862Z,100059.53
2022-12-04T17:31:06.229Z,100061.22
2022-12-04T17:33:55.945Z,100050.75
2022-12-04T17:36:44.795Z,100049.88
2022-12-04T17:39:33.825Z,100052.44
2022-12-04T17:42:24.309Z,100049.88
2022-12-04T17:45:14.431Z,100062.66
2022-12-04T17:48:03.297Z,100054.09
2022-12-04T17:51:04.750Z,100058.31
2022-12-04T17:53:53.953Z,100064.13
2022-12-04T17:56:47.787Z,100064.13
2022-12-04T17:59:40.644Z,100070.94
2022-12-04T18:02:29.348Z,100066.69
2022-12-04T18:05:18.207Z,100059.88
2022-12-04T18:08:07.122Z,100067.47
2022-12-04T18:10:56.984Z,100062.22
2022-12-04T18:13:45.733Z,100053.78
2022-12-04T18:16:39.760Z,100050.31
2022-12-04T18:19:30.430Z,100051.22
2022-12-04T18:22:19.521Z,100049.63
2022-12-04T18:25:10.492Z,100043.84
2022-12-04T18:28:01.057Z,100048.19
2022-12-04T18:30:49.860Z,100052.31
2022-12-04T18:33:42.306Z,100050.44
2022-12-04T18:36:32.581Z,100058.66
2022-12-04T18:39:24.626Z,100061.00
2022-12-04T18:42:13.311Z,100062.56
2022-12-04T18:45:02.615Z,100064.16
2022-12-04T18:47:51.399Z,100060.00
2022-12-04T18:50:43.366Z,100065.91
2022-12-04T18:53:32.093Z,100062.38
2022-12-04T18:56:21.553Z,100065.91
2022-12-04T18:59:14.258Z,100064.34
2022-12-04T19:02:03.034Z,100067.94
2022-12-04T19:04:51.916Z,100066.34
2022-12-04T19:07:42.156Z,100060.31
2022-12-04T19:10:32.049Z,100051.88
2022-12-04T19:13:21.097Z,100050.09
2022-12-04T19:16:13.453Z,100052.88
2022-12-04T19:19:02.813Z,100048.53
2022-12-04T19:21:51.459Z,100057.88
2022-12-04T19:24:41.951Z,100051.53
2022-12-04T19:27:30.609Z,100055.66
2022-12-04T19:30:19.629Z,100057.44
2022-12-04T19:33:08.345Z,100062.81
2022-12-04T19:36:03.154Z,100061.22
2022-12-04T19:38:53.391Z,100062.03
2022-12-04T19:41:43.565Z,100064.59
2022-12-04T19:44:49.486Z,100066.34
2022-12-04T19:47:38.652Z,100074.84
2022-12-04T19:50:27.466Z,100067.94
2022-12-04T19:53:16.224Z,100066.13
2022-12-04T19:56:07.467Z,100073.69
2022-12-04T19:59:00.167Z,100076.16
2022-12-04T20:01:49.210Z,100078.72
2022-12-04T20:04:39.579Z,100083.06
2022-12-04T20:07:30.499Z,100081.25
2022-12-04T20:10:20.907Z,100075.25
2022-12-04T20:13:09.609Z,100083.81
2022-12-04T20:16:04.063Z,100089.06
2022-12-04T20:18:54.899Z,100084.84
2022-12-04T20:21:44.362Z,100085.84
2022-12-04T20:24:33.085Z,100086.75
2022-12-04T20:27:21.779Z,100082.28
2022-12-04T20:30:11.667Z,100085.50
2022-12-04T20:33:01.753Z,100084.41
2022-12-04T20:35:50.512Z,100080.06
2022-12-04T20:38:40.317Z,100073.25
2022-12-04T20:41:31.373Z,100069.03
2022-12-04T20:44:21.675Z,100067.25
2022-12-04T20:47:10.439Z,100066.25
2022-12-04T20:50:00.567Z,100068.69
2022-12-04T20:52:49.292Z,100061.03
2022-12-04T20:55:38.148Z,100061.03
2022-12-04T20:58:26.794Z,100061.91
2022-12-04T21:01:18.983Z,100057.91
2022-12-04T21:04:08.384Z,100058.78
2022-12-04T21:06:59.107Z,100055.56
2022-12-04T21:09:47.729Z,100048.34
2022-12-04T21:12:53.964Z,100051.78
2022-12-04T21:16:00.251Z,100047.53
2022-12-04T21:18:49.296Z,100048.34
2022-12-04T21:21:38.768Z,100051.78
2022-12-04T21:24:30.269Z,100045.78
2022-12-04T21:27:21.278Z,100036.97
2022-12-04T21:30:12.208Z,100036.06
2022-12-04T21:33:00.921Z,100041.19
2022-12-04T21:35:49.942Z,100041.19
2022-12-04T21:38:41.038Z,100044.66
2022-12-04T21:41:48.483Z,100039.44
2022-12-04T21:44:37.379Z,100052.25
2022-12-04T21:47:26.976Z,100056.78
2022-12-04T21:50:15.589Z,100054.34
2022-12-04T21:53:04.247Z,100057.00
2022-12-04T21:55:57.170Z,100057.25
2022-12-04T21:58:47.679Z,100055.44
2022-12-04T22:01:36.528Z,100054.44
2022-12-04T22:04:25.285Z,100053.47
2022-12-04T22:07:13.955Z,100062.03
2022-12-04T22:10:08.614Z,100057.91
2022-12-04T22:12:59.218Z,100067.69
2022-12-04T22:15:49.356Z,100069.47
2022-12-04T22:18:38.525Z,100067.69
2022-12-04T22:21:29.341Z,100066.91
2022-12-04T22:24:18.242Z,100070.50
2022-12-04T22:27:06.912Z,100079.97
2022-12-04T22:29:55.685Z,100075.69
2022-12-04T22:32:45.795Z,100074.91
2022-12-04T22:35:34.783Z,100069.78
2022-12-04T22:38:23.433Z,100078.25
2022-12-04T22:41:15.456Z,100079.16
2022-12-04T22:44:04.645Z,100084.19
2022-12-04T22:46:53.405Z,100082.53
2022-12-04T22:49:43.557Z,100086.84
2022-12-04T22:52:32.661Z,100081.72
2022-12-04T22:55:21.275Z,100082.59
2022-12-04T22:58:09.978Z,100084.97
2022-12-04T23:00:58.636Z,100086.63
2022-12-04T23:03:48.587Z,100087.53
2022-12-04T23:06:38.765Z,100083.28
2022-12-04T23:09:27.918Z,100087.72
2022-12-04T23:12:16.656Z,100097.19
2022-12-04T23:15:06.317Z,100091.19
2022-12-04T23:17:55.150Z,100096.31
2022-12-04T23:20:43.884Z,100092.06
2022-12-04T23:23:35.169Z,100087.06
2022-12-04T23:26:26.552Z,100090.41
2022-12-04T23:29:44.965Z,100083.50
2022-12-04T23:32:24.622Z,100087.97
2022-12-04T23:35:13.368Z,100080.38
2022-12-04T23:38:35.431Z,100081.25
2022-12-04T23:41:26.947Z,100078.50
2022-12-04T23:44:15.678Z,100074.16
2022-12-04T23:47:04.650Z,100075.81
2022-12-04T23:49:53.338Z,100076.81
2022-12-04T23:52:42.004Z,100083.75
2022-12-04T23:55:34.519Z,100081.25
2022-12-04T23:58:23.649Z,100080.47
